Bareilly — A8KG7 — position and weather

sailwx.info

Track history (hours):
 
Tides and Currents Weather Stations Pressure Air Temp Water Temp Dewpoint Dewpoint Depression Visibility Wind Speed Wind Dir Waves Ship Positions

Bareilly

Last reported at 2015-Mar-26 18:12 UTC. Time now 2015-Mar-27 13:20 UTC.
Position N 35°47' W 030°17'.

Length 243 m; draft 13.8 m.

Type: Tanker. MMSI: 636013054.

Date/timePositionNaut miles runAvg speedWind from/ knotsBaromVisibWave heightAir tempDewpointWater temp
2015-Mar-26 18:12N 35°47' W 030°17'4412.0
2015-Mar-26 14:32N 35°47' W 029°23'1611.8
2015-Mar-26 13:09N 35°46' W 029°03'7112.1
2015-Mar-26 07:19N 35°44' W 027°36'911.9
2015-Mar-26 06:33N 35°43' W 027°25'2512.4
2015-Mar-26 04:33N 35°42' W 026°54'1612.2
2015-Mar-26 03:12N 35°42' W 026°34'1112.1
2015-Mar-26 02:20N 35°42' W 026°21'1012.0
2015-Mar-26 01:29N 35°41' W 026°09'1212.1
2015-Mar-26 00:31N 35°41' W 025°54'1312.1
2015-Mar-25 23:27N 35°40' W 025°39'1112.2
2015-Mar-25 22:33N 35°40' W 025°25'1212.2
2015-Mar-25 21:33N 35°39' W 025°10'1312.4
2015-Mar-25 20:31N 35°39' W 024°54'1212.5
2015-Mar-25 19:32N 35°38' W 024°39'1212.6
2015-Mar-25 18:33N 35°38' W 024°24'1512.4
2015-Mar-25 17:19N 35°37' W 024°05'1012.3
2015-Mar-25 16:32N 35°38' W 023°53'1312.3
2015-Mar-25 15:29N 35°37' W 023°38'1212.3
2015-Mar-25 14:33N 35°36' W 023°23'1612.4
2015-Mar-25 13:17N 35°35' W 023°04'3512.3
2015-Mar-25 10:25N 35°34' W 022°21'  
2015-Mar-22 11:33N 35°59' W 005°33'9 9.4
2015-Mar-22 10:33N 36°01' W 005°22'8 8.2
2015-Mar-22 09:33N 36°04' W 005°12'19212.6
2015-Mar-21 18:17N 36°33' W 001°16'2412.8
2015-Mar-21 16:22N 36°37' W 000°47'1212.8
2015-Mar-21 15:25N 36°38' W 000°31'3812.5
2015-Mar-21 12:23N 36°46' E 000°15'911.4
2015-Mar-21 11:33N 36°47' E 000°27'1111.2
2015-Mar-21 10:33N 36°48' E 000°41'1111.3
2015-Mar-21 09:33N 36°50' E 000°55'17411.6
2015-Mar-20 18:33N 37°18' E 004°30'4812.0
2015-Mar-20 14:31N 37°26' E 005°30'2512.0
2015-Mar-20 12:26N 37°30' E 006°01'8912.6
2015-Mar-20 05:26N 37°44' E 007°51'5912.0
2015-Mar-20 00:31N 37°52' E 009°05'1412.1
2015-Mar-19 23:24N 37°48' E 009°22'21412.4
2015-Mar-19 06:06N 36°38' E 013°36'912.3
2015-Mar-19 05:22N 36°35' E 013°47'1012.4
2015-Mar-19 04:33N 36°32' E 013°58'1212.4
2015-Mar-19 03:33N 36°28' E 014°13'1212.3
2015-Mar-19 02:33N 36°24' E 014°28'48710.9
2015-Mar-17 06:05N 37°39' E 024°30'912.4
2015-Mar-17 05:24N 37°48' E 024°31'  
Track history (hours):
 
Tides and Currents Weather Stations Pressure Air Temp Water Temp Dewpoint Dewpoint Depression Visibility Wind Speed Wind Dir Waves Ship Positions

Bareilly

Last reported at 2015-Mar-26 18:12 UTC. Time now 2015-Mar-27 13:20 UTC.
Position N 35°47' W 030°17'.

Length 243 m; draft 13.8 m.

Type: Tanker. MMSI: 636013054.

Date/timePositionNaut miles runAvg speedWind from/ knotsBaromVisibWave heightAir tempDewpointWater temp
2015-Mar-26 18:12N 35°47' W 030°17'4412.0
2015-Mar-26 14:32N 35°47' W 029°23'1611.8
2015-Mar-26 13:09N 35°46' W 029°03'7112.1
2015-Mar-26 07:19N 35°44' W 027°36'911.9
2015-Mar-26 06:33N 35°43' W 027°25'2512.4
2015-Mar-26 04:33N 35°42' W 026°54'1612.2
2015-Mar-26 03:12N 35°42' W 026°34'1112.1
2015-Mar-26 02:20N 35°42' W 026°21'1012.0
2015-Mar-26 01:29N 35°41' W 026°09'1212.1
2015-Mar-26 00:31N 35°41' W 025°54'1312.1
2015-Mar-25 23:27N 35°40' W 025°39'1112.2
2015-Mar-25 22:33N 35°40' W 025°25'1212.2
2015-Mar-25 21:33N 35°39' W 025°10'1312.4
2015-Mar-25 20:31N 35°39' W 024°54'1212.5
2015-Mar-25 19:32N 35°38' W 024°39'1212.6
2015-Mar-25 18:33N 35°38' W 024°24'1512.4
2015-Mar-25 17:19N 35°37' W 024°05'1012.3
2015-Mar-25 16:32N 35°38' W 023°53'1312.3
2015-Mar-25 15:29N 35°37' W 023°38'1212.3
2015-Mar-25 14:33N 35°36' W 023°23'1612.4
2015-Mar-25 13:17N 35°35' W 023°04'3512.3
2015-Mar-25 10:25N 35°34' W 022°21'  
2015-Mar-22 11:33N 35°59' W 005°33'9 9.4
2015-Mar-22 10:33N 36°01' W 005°22'8 8.2
2015-Mar-22 09:33N 36°04' W 005°12'19212.6
2015-Mar-21 18:17N 36°33' W 001°16'2412.8
2015-Mar-21 16:22N 36°37' W 000°47'1212.8
2015-Mar-21 15:25N 36°38' W 000°31'3812.5
2015-Mar-21 12:23N 36°46' E 000°15'911.4
2015-Mar-21 11:33N 36°47' E 000°27'1111.2
2015-Mar-21 10:33N 36°48' E 000°41'1111.3
2015-Mar-21 09:33N 36°50' E 000°55'17411.6
2015-Mar-20 18:33N 37°18' E 004°30'4812.0
2015-Mar-20 14:31N 37°26' E 005°30'2512.0
2015-Mar-20 12:26N 37°30' E 006°01'8912.6
2015-Mar-20 05:26N 37°44' E 007°51'5912.0
2015-Mar-20 00:31N 37°52' E 009°05'1412.1
2015-Mar-19 23:24N 37°48' E 009°22'21412.4
2015-Mar-19 06:06N 36°38' E 013°36'912.3
2015-Mar-19 05:22N 36°35' E 013°47'1012.4
2015-Mar-19 04:33N 36°32' E 013°58'1212.4
2015-Mar-19 03:33N 36°28' E 014°13'1212.3
2015-Mar-19 02:33N 36°24' E 014°28'48710.9
2015-Mar-17 06:05N 37°39' E 024°30'912.4
2015-Mar-17 05:24N 37°48' E 024°31'  

Dump ship's entire track history